createdAt,value
2018-08-30T00:01:42.502Z,57.17
2018-08-30T00:05:44.667Z,66.90
2018-08-30T00:09:46.844Z,68.17
2018-08-30T00:13:48.976Z,70.93
2018-08-30T00:17:51.166Z,67.03
2018-08-30T00:21:53.362Z,67.57
2018-08-30T00:25:55.855Z,90.57
2018-08-30T00:29:58.111Z,76.13
2018-08-30T00:34:00.295Z,82.00
2018-08-30T00:38:02.464Z,91.73
2018-08-30T00:42:04.638Z,91.20
2018-08-30T00:46:06.843Z,78.40
2018-08-30T00:50:09.022Z,75.00
2018-08-30T00:54:11.161Z,83.87
2018-08-30T00:58:13.314Z,59.07
2018-08-30T01:02:15.471Z,51.37
2018-08-30T01:06:17.648Z,57.53
2018-08-30T01:10:19.858Z,50.30
2018-08-30T01:14:21.999Z,43.37
2018-08-30T01:18:24.183Z,53.37
2018-08-30T01:22:26.346Z,43.43
2018-08-30T01:26:28.570Z,39.60
2018-08-30T01:30:30.762Z,37.83
2018-08-30T01:34:32.931Z,32.17
2018-08-30T01:38:35.150Z,31.80
2018-08-30T01:42:37.272Z,41.43
2018-08-30T01:46:39.447Z,34.13
2018-08-30T01:50:41.685Z,32.33
2018-08-30T01:54:43.827Z,28.77
2018-08-30T01:58:45.994Z,29.87
2018-08-30T02:02:48.167Z,32.00
2018-08-30T02:06:50.319Z,35.03
2018-08-30T02:10:52.491Z,31.97
2018-08-30T02:14:54.642Z,28.00
2018-08-30T02:18:56.963Z,26.97
2018-08-30T02:22:59.099Z,27.23
2018-08-30T02:27:01.257Z,23.53
2018-08-30T02:31:03.436Z,27.10
2018-08-30T02:35:06.060Z,23.27
2018-08-30T02:39:09.105Z,23.33
2018-08-30T02:43:11.251Z,23.93
2018-08-30T02:47:13.418Z,19.17
2018-08-30T02:51:15.542Z,16.47
2018-08-30T02:55:17.699Z,14.33
2018-08-30T02:59:19.899Z,12.40
2018-08-30T03:03:22.105Z,12.17
2018-08-30T03:07:24.283Z,10.70
2018-08-30T03:11:26.472Z,9.63
2018-08-30T03:15:28.638Z,9.07
2018-08-30T03:19:30.849Z,9.73
2018-08-30T03:23:33.607Z,7.23
2018-08-30T03:27:35.785Z,17.50
2018-08-30T03:31:37.926Z,8.57
2018-08-30T03:35:40.088Z,9.50
2018-08-30T03:39:42.234Z,10.40
2018-08-30T03:43:44.414Z,12.17
2018-08-30T03:47:46.853Z,12.23
2018-08-30T03:51:49.026Z,12.43
2018-08-30T03:55:51.166Z,12.50
2018-08-30T03:59:53.308Z,14.10
2018-08-30T04:03:55.445Z,13.20
2018-08-30T04:07:57.654Z,14.50
2018-08-30T04:12:00.239Z,13.60
2018-08-30T04:16:02.450Z,15.90
2018-08-30T04:20:05.063Z,17.17
2018-08-30T04:24:08.157Z,15.03
2018-08-30T04:28:10.333Z,15.20
2018-08-30T04:32:12.507Z,16.50
2018-08-30T04:36:14.722Z,17.83
2018-08-30T04:40:17.611Z,18.60
2018-08-30T04:44:20.225Z,22.57
2018-08-30T04:48:22.811Z,21.70
2018-08-30T04:52:25.001Z,25.60
2018-08-30T04:56:27.553Z,22.93
2018-08-30T05:00:29.694Z,28.67
2018-08-30T05:04:31.975Z,28.20
2018-08-30T05:08:34.298Z,29.20
2018-08-30T05:12:36.501Z,31.03
2018-08-30T05:16:38.759Z,32.90
2018-08-30T05:20:41.987Z,33.80
2018-08-30T05:24:44.823Z,34.50
2018-08-30T05:28:46.980Z,36.13
2018-08-30T05:32:49.148Z,34.53
2018-08-30T05:36:51.866Z,35.33
2018-08-30T05:40:54.815Z,34.77
2018-08-30T05:44:57.334Z,35.63
2018-08-30T05:49:00.558Z,36.30
2018-08-30T05:53:03.356Z,37.13
2018-08-30T05:57:05.595Z,40.23
2018-08-30T06:01:07.875Z,39.83
2018-08-30T06:05:10.950Z,38.10
2018-08-30T06:09:13.105Z,39.23
2018-08-30T06:13:15.269Z,37.90
2018-08-30T06:17:17.508Z,38.13
2018-08-30T06:21:19.639Z,39.23
2018-08-30T06:25:21.787Z,39.27
2018-08-30T06:29:24.222Z,36.53
2018-08-30T06:33:26.355Z,37.20
2018-08-30T06:37:28.513Z,38.53
2018-08-30T06:41:31.374Z,39.60
2018-08-30T06:45:34.094Z,38.53
2018-08-30T06:49:36.248Z,38.43
2018-08-30T06:53:38.651Z,39.43
2018-08-30T06:57:41.101Z,38.40
2018-08-30T07:01:43.243Z,39.43
2018-08-30T07:05:46.314Z,41.53
2018-08-30T07:09:48.484Z,41.87
2018-08-30T07:13:50.666Z,40.73
2018-08-30T07:17:52.814Z,41.27
2018-08-30T07:23:24.540Z,39.83
2018-08-30T07:27:27.300Z,40.80
2018-08-30T07:31:30.220Z,44.70
2018-08-30T07:35:32.391Z,40.60
2018-08-30T07:39:36.760Z,40.87
2018-08-30T07:43:39.021Z,38.67
2018-08-30T07:47:41.248Z,41.30
2018-08-30T07:51:43.461Z,40.63
2018-08-30T07:55:45.720Z,44.43
2018-08-30T07:59:48.698Z,43.50
2018-08-30T08:03:50.852Z,40.70
2018-08-30T08:07:53.443Z,37.80
2018-08-30T08:11:56.753Z,34.50
2018-08-30T08:15:58.987Z,35.47
2018-08-30T08:20:02.375Z,36.33
2018-08-30T08:24:04.564Z,33.93
2018-08-30T08:28:06.791Z,32.10
2018-08-30T08:32:08.942Z,30.03
2018-08-30T08:36:11.490Z,33.37
2018-08-30T08:40:13.691Z,33.43
2018-08-30T08:44:16.316Z,36.23
2018-08-30T08:48:18.749Z,33.40
2018-08-30T08:52:20.931Z,33.30
2018-08-30T08:56:23.702Z,33.60
2018-08-30T09:00:26.215Z,32.23
2018-08-30T09:04:29.457Z,33.47
2018-08-30T09:08:31.738Z,30.53
2018-08-30T09:12:34.266Z,30.93
2018-08-30T09:16:36.500Z,29.00
2018-08-30T09:20:38.689Z,28.40
2018-08-30T09:24:40.863Z,28.17
2018-08-30T09:28:44.002Z,27.37
2018-08-30T09:32:46.218Z,29.50
2018-08-30T09:36:48.451Z,24.00
2018-08-30T09:40:50.703Z,26.77
2018-08-30T09:44:53.591Z,24.30
2018-08-30T09:48:56.778Z,24.53
2018-08-30T09:52:59.359Z,25.17
2018-08-30T09:57:01.763Z,25.77
2018-08-30T10:01:10.154Z,27.10
2018-08-30T10:05:12.424Z,26.27
2018-08-30T10:09:14.628Z,30.20
2018-08-30T10:13:16.863Z,33.47
2018-08-30T10:17:19.012Z,32.33
2018-08-30T10:21:22.601Z,21.53
2018-08-30T10:25:24.846Z,17.47
2018-08-30T10:29:27.262Z,23.03
2018-08-30T10:33:29.924Z,21.27
2018-08-30T10:37:32.149Z,21.07
2018-08-30T10:41:34.448Z,21.20
2018-08-30T10:45:36.652Z,22.43
2018-08-30T10:49:39.061Z,23.03
2018-08-30T10:53:41.498Z,20.70
2018-08-30T10:57:44.649Z,17.57
2018-08-30T11:01:46.919Z,17.63
2018-08-30T11:05:49.305Z,18.80
2018-08-30T11:09:52.343Z,16.40
2018-08-30T11:13:54.740Z,17.23
2018-08-30T11:17:57.652Z,19.67
2018-08-30T11:21:59.878Z,17.07
2018-08-30T11:26:02.066Z,18.10
2018-08-30T11:30:04.981Z,16.80
2018-08-30T11:34:07.214Z,16.63
2018-08-30T11:38:09.564Z,15.80
2018-08-30T11:42:11.752Z,17.17
2018-08-30T11:46:15.733Z,14.63
2018-08-30T11:50:17.968Z,14.70
2018-08-30T11:54:20.312Z,13.63
2018-08-30T11:58:23.281Z,13.83
2018-08-30T12:02:25.778Z,16.80
2018-08-30T12:06:28.576Z,13.73
2018-08-30T12:10:31.043Z,14.83
2018-08-30T12:14:33.109Z,13.60
2018-08-30T12:18:35.448Z,14.63
2018-08-30T12:22:37.834Z,13.60
2018-08-30T12:26:42.380Z,12.80
2018-08-30T12:30:45.103Z,12.00
2018-08-30T12:34:48.189Z,11.40
2018-08-30T12:38:50.413Z,10.77
2018-08-30T12:42:53.750Z,10.53
2018-08-30T12:46:55.893Z,9.10
2018-08-30T12:50:58.171Z,8.50
2018-08-30T12:55:00.760Z,9.43
2018-08-30T12:59:08.605Z,10.23
2018-08-30T13:03:10.859Z,9.77
2018-08-30T13:07:13.236Z,9.87
2018-08-30T13:11:15.501Z,12.23
2018-08-30T13:15:17.820Z,9.07
2018-08-30T13:19:21.383Z,9.03
2018-08-30T13:23:23.611Z,9.27
2018-08-30T13:27:26.262Z,8.27
2018-08-30T13:31:28.557Z,8.23
2018-08-30T13:35:30.725Z,7.67
2018-08-30T13:39:33.167Z,7.73
2018-08-30T13:43:35.860Z,12.63
2018-08-30T13:47:38.333Z,6.80
2018-08-30T13:51:41.576Z,7.03
2018-08-30T13:55:43.943Z,7.70
2018-08-30T13:59:47.218Z,10.97
2018-08-30T14:03:49.134Z,8.77
2018-08-30T14:07:51.175Z,10.10
2018-08-30T14:11:53.591Z,6.50
2018-08-30T14:15:55.498Z,5.53
2018-08-30T14:19:59.875Z,5.53
2018-08-30T14:24:14.504Z,6.70
2018-08-30T14:28:26.077Z,5.27
2018-08-30T14:32:35.313Z,5.37
2018-08-30T14:36:55.002Z,5.87
2018-08-30T14:41:07.526Z,7.63
2018-08-30T14:45:18.647Z,6.07
2018-08-30T14:49:21.736Z,5.50
2018-08-30T14:53:24.467Z,5.33
2018-08-30T14:57:27.319Z,6.37
2018-08-30T15:01:30.614Z,6.60
2018-08-30T15:05:33.192Z,4.73
2018-08-30T15:09:35.148Z,4.47
2018-08-30T15:13:37.494Z,5.03
2018-08-30T15:17:39.950Z,5.90
2018-08-30T15:21:42.570Z,5.47
2018-08-30T15:25:44.798Z,6.67
2018-08-30T15:29:47.127Z,7.20
2018-08-30T15:33:49.732Z,6.67
2018-08-30T15:37:51.987Z,8.40
2018-08-30T15:41:54.170Z,5.60
2018-08-30T15:45:56.314Z,6.40
2018-08-30T15:49:58.461Z,7.43
2018-08-30T15:54:00.739Z,4.80
2018-08-30T15:58:02.960Z,6.27
2018-08-30T16:02:05.358Z,6.60
2018-08-30T16:06:07.564Z,5.33
2018-08-30T16:10:09.808Z,8.33
2018-08-30T16:14:12.038Z,6.53
2018-08-30T16:18:14.264Z,5.03
2018-08-30T16:22:16.463Z,7.80
2018-08-30T16:26:19.718Z,7.00
2018-08-30T16:30:23.195Z,6.93
2018-08-30T16:34:26.525Z,7.17
2018-08-30T16:38:29.969Z,4.90
2018-08-30T16:42:33.028Z,7.50
2018-08-30T16:46:35.842Z,6.23
2018-08-30T16:50:38.144Z,4.53
2018-08-30T16:54:40.413Z,4.37
2018-08-30T16:58:42.589Z,3.47
2018-08-30T17:02:44.808Z,4.37
2018-08-30T17:06:47.172Z,9.13
2018-08-30T17:10:49.367Z,4.37
2018-08-30T17:14:51.647Z,6.73
2018-08-30T17:18:57.376Z,3.63
2018-08-30T17:22:59.589Z,5.10
2018-08-30T17:27:01.822Z,3.60
2018-08-30T17:31:04.247Z,6.73
2018-08-30T17:35:06.716Z,3.77
2018-08-30T17:39:10.031Z,4.63
2018-08-30T17:43:12.313Z,3.10
2018-08-30T17:47:14.584Z,10.57
2018-08-30T17:51:16.903Z,3.63
2018-08-30T17:55:19.323Z,9.93
2018-08-30T17:59:22.220Z,7.73
2018-08-30T18:03:24.545Z,5.63
2018-08-30T18:07:26.853Z,6.80
2018-08-30T18:11:29.243Z,6.83
2018-08-30T18:15:31.468Z,6.23
2018-08-30T18:19:33.715Z,11.30
2018-08-30T18:23:35.942Z,6.63
2018-08-30T18:27:38.254Z,4.10
2018-08-30T18:31:40.504Z,3.80
2018-08-30T18:35:42.691Z,6.57
2018-08-30T18:39:44.909Z,9.70
2018-08-30T18:43:47.467Z,7.37
2018-08-30T18:47:49.732Z,6.67
2018-08-30T18:51:52.069Z,8.63
2018-08-30T18:55:54.375Z,4.17
2018-08-30T18:59:56.557Z,6.33
2018-08-30T19:03:59.011Z,5.00
2018-08-30T19:08:02.085Z,5.13
2018-08-30T19:12:05.036Z,4.60
2018-08-30T19:16:12.931Z,7.87
2018-08-30T19:20:15.375Z,7.37
2018-08-30T19:24:23.553Z,5.17
2018-08-30T19:28:26.109Z,4.33
2018-08-30T19:32:28.733Z,4.57
2018-08-30T19:36:31.994Z,6.80
2018-08-30T19:40:40.559Z,8.13
2018-08-30T19:44:43.269Z,5.07
2018-08-30T19:48:46.661Z,7.27
2018-08-30T19:52:48.928Z,5.30
2018-08-30T19:56:51.117Z,7.23
2018-08-30T20:00:53.325Z,5.10
2018-08-30T20:04:55.502Z,8.97
2018-08-30T20:08:57.737Z,6.63
2018-08-30T20:13:00.975Z,6.73
2018-08-30T20:17:03.124Z,5.50
2018-08-30T20:21:05.351Z,6.10
2018-08-30T20:25:07.579Z,5.87
2018-08-30T20:29:09.751Z,4.43
2018-08-30T20:33:12.020Z,6.10
2018-08-30T20:37:14.238Z,6.93
2018-08-30T20:41:16.492Z,5.97
2018-08-30T20:45:18.667Z,6.07
2018-08-30T20:49:21.855Z,6.50
2018-08-30T20:53:24.119Z,8.93
2018-08-30T20:57:26.407Z,9.63
2018-08-30T21:01:28.575Z,8.90
2018-08-30T21:05:30.775Z,8.97
2018-08-30T21:09:32.955Z,4.87
2018-08-30T21:13:35.995Z,6.47
2018-08-30T21:17:38.279Z,6.20
2018-08-30T21:21:40.439Z,7.47
2018-08-30T21:25:42.638Z,7.33
2018-08-30T21:29:44.831Z,5.00
2018-08-30T21:33:47.054Z,6.73
2018-08-30T21:37:49.233Z,6.43
2018-08-30T21:41:51.412Z,7.20
2018-08-30T21:45:53.667Z,6.43
2018-08-30T21:49:55.829Z,5.73
2018-08-30T21:53:57.978Z,6.87
2018-08-30T21:58:00.113Z,7.10
2018-08-30T22:02:02.280Z,6.80
2018-08-30T22:06:04.481Z,7.13
2018-08-30T22:10:06.669Z,7.40
2018-08-30T22:14:09.986Z,10.60
2018-08-30T22:18:12.122Z,8.40
2018-08-30T22:22:14.309Z,13.93
2018-08-30T22:26:16.458Z,7.87
2018-08-30T22:30:18.635Z,12.93
2018-08-30T22:34:20.801Z,6.83
2018-08-30T22:38:23.007Z,7.67
2018-08-30T22:42:25.123Z,7.00
2018-08-30T22:46:27.259Z,7.13
2018-08-30T22:50:30.547Z,7.60
2018-08-30T22:54:32.746Z,7.73
2018-08-30T22:58:35.139Z,9.10
2018-08-30T23:02:37.313Z,7.23
2018-08-30T23:06:39.463Z,7.57
2018-08-30T23:10:41.750Z,7.67
2018-08-30T23:14:43.963Z,6.00
2018-08-30T23:18:46.106Z,8.73
2018-08-30T23:22:48.251Z,6.53
2018-08-30T23:26:50.495Z,8.17
2018-08-30T23:30:52.647Z,7.80
2018-08-30T23:34:54.963Z,6.47
2018-08-30T23:38:57.214Z,8.43
2018-08-30T23:42:59.875Z,8.23
2018-08-30T23:47:02.308Z,7.13
2018-08-30T23:51:04.689Z,8.03
2018-08-30T23:55:06.870Z,4.73
2018-08-30T23:59:20.561Z,10.47
